หน้าหลัก
METAR-TAF:

METAR-TAF

ท่าอากาศยาน :

Florø, นอร์เวย์

ละติจูด: 61-35N, ลองจิจูด: 005-02E, ความสูง: 0 ม.

การสังเกตสภาพอากาศปัจจุบัน

รายงานได้ทำขึ้นเมื่อ 33 นาทีที่แล้ว ณ เวลา 00:20 UTC
ลม 12 นอตจากใต้/ตะวันออกเฉียงใต้
อุณหภูมิ 19°C
ความชื้น 73%
ความกดอากาศ 1014 hPa
ทัศนวิสัย 10 กม. หรือมากกว่า

METAR: ENFL 200020Z AUTO 16012KT 9999NDV FEW042/// BKN054/// OVC094/// 19/14 Q1014

เวลา: 02:53 (00:53 UTC)

การพยากรณ์

รายงานได้ทำขึ้นเมื่อ 1 ชั่วโมงและ 53 นาทีที่แล้ว ณ เวลา 23:00 UTC
การพยากรณ์มีผลตั้งแต่วันที่ 20 ณ เวลา 00 UTC จนถึงวันที่ 20 ณ เวลา 09 UTC
ลม 12 นอตจากตะวันออก/ตะวันออกเฉียงใต้
ทัศนวิสัย 10 กม. หรือมากกว่า
มีเมฆกระจายเป็นบางส่วนที่ความสูง 4500 ฟุต
ความน่าจะเป็น 40%
ตั้งแต่วันที่ 20 ณ เวลา 00 UTC จนถึงวันที่ 20 ณ เวลา 09 UTC
ลม 15 นอตจากใต้

TAF: ENFL 192300Z 2000/2009 12012KT 9999 SCT045 PROB40 2000/2009 18015KT

สังเกตการณ์สภาพอากาศและพยากรณ์อากาศของสนามบินมากกว่า 4000 แห่ง (รายงาน METAR และ TAF).

สถานีที่ดูได้จะแสดงไว้ด้วยจุดสีเหลืองและสีแดงบนแผนที่.

เลื่อนเมาส์ไปเหนือจุดเพื่อดูชื่อสถานี.

แล้วคลิกเพื่อดูสังเกตการณ์และการพยากรณ์สภาพอากาศ.

ในการเปลี่ยนแผนที่: คลิกที่ปุ่มสีเขียวที่มีกากบาทสีดำเพื่อซูมเข้า; ที่ปุ่มสีเขียวที่มีขีดเพื่อซูมออก; หรือที่ลูกศรสีเขียวเพื่อไปยังแผนที่ที่อยู่ติดกัน.


METAR-TAF: